createdAt,value
2023-01-20T00:00:23.214Z,1.70
2023-01-20T00:02:25.954Z,1.70
2023-01-20T00:04:28.468Z,1.80
2023-01-20T00:06:30.948Z,1.80
2023-01-20T00:08:33.687Z,1.80
2023-01-20T00:10:37.739Z,1.80
2023-01-20T00:12:40.217Z,1.80
2023-01-20T00:14:42.715Z,1.80
2023-01-20T00:16:45.174Z,1.70
2023-01-20T00:18:47.711Z,1.80
2023-01-20T00:20:50.189Z,1.70
2023-01-20T00:22:52.659Z,1.70
2023-01-20T00:24:55.283Z,1.70
2023-01-20T00:26:57.783Z,1.70
2023-01-20T00:29:00.419Z,1.70
2023-01-20T00:31:13.020Z,1.70
2023-01-20T00:33:15.641Z,1.70
2023-01-20T00:35:18.153Z,1.70
2023-01-20T00:37:20.622Z,1.70
2023-01-20T00:39:23.184Z,1.70
2023-01-20T00:41:26.396Z,1.80
2023-01-20T00:43:29.193Z,1.90
2023-01-20T00:45:32.084Z,1.90
2023-01-20T00:47:36.167Z,1.90
2023-01-20T00:49:38.861Z,1.90
2023-01-20T00:51:42.658Z,1.90
2023-01-20T00:53:45.764Z,1.90
2023-01-20T00:55:48.299Z,1.90
2023-01-20T00:57:50.966Z,1.90
2023-01-20T00:59:53.477Z,1.80
2023-01-20T01:01:56.037Z,1.70
2023-01-20T01:03:58.747Z,1.70
2023-01-20T01:06:08.562Z,1.70
2023-01-20T01:08:11.890Z,1.70
2023-01-20T01:10:14.509Z,1.70
2023-01-20T01:12:17.385Z,1.70
2023-01-20T01:14:19.899Z,1.70
2023-01-20T01:16:22.400Z,1.60
2023-01-20T01:18:25.167Z,1.70
2023-01-20T01:20:28.295Z,1.70
2023-01-20T01:22:31.985Z,1.60
2023-01-20T01:24:35.587Z,1.70
2023-01-20T01:26:38.327Z,1.70
2023-01-20T01:28:41.066Z,1.70
2023-01-20T01:30:43.558Z,1.70
2023-01-20T01:32:47.003Z,1.80
2023-01-20T01:34:49.468Z,1.80
2023-01-20T01:36:51.938Z,1.70
2023-01-20T01:38:57.680Z,1.70
2023-01-20T01:40:58.767Z,1.70
2023-01-20T01:43:01.430Z,1.80
2023-01-20T01:45:24.083Z,1.80
2023-01-20T01:47:26.831Z,1.80
2023-01-20T01:49:31.100Z,1.80
2023-01-20T01:51:35.783Z,1.90
2023-01-20T01:53:40.875Z,1.90
2023-01-20T01:55:44.725Z,1.90
2023-01-20T01:57:48.052Z,1.90
2023-01-20T01:59:51.362Z,1.90
2023-01-20T02:01:55.057Z,1.90
2023-01-20T02:03:59.699Z,1.90
2023-01-20T02:06:02.379Z,2.00
2023-01-20T02:08:05.559Z,1.90
2023-01-20T02:10:09.498Z,1.90
2023-01-20T02:12:13.266Z,1.90
2023-01-20T02:14:16.581Z,1.90
2023-01-20T02:16:20.920Z,1.90
2023-01-20T02:18:31.967Z,1.80
2023-01-20T02:20:53.258Z,1.90
2023-01-20T02:22:58.027Z,1.90
2023-01-20T02:25:19.963Z,1.90
2023-01-20T02:27:25.607Z,1.90
2023-01-20T02:29:56.570Z,1.90
2023-01-20T02:32:21.126Z,1.90
2023-01-20T02:36:42.468Z,1.90
2023-01-20T02:38:46.970Z,1.90
2023-01-20T02:40:52.352Z,1.80
2023-01-20T02:42:58.343Z,1.80
2023-01-20T02:45:02.695Z,1.80
2023-01-20T02:47:07.188Z,1.80
2023-01-20T02:49:12.022Z,1.90
2023-01-20T02:51:17.322Z,1.80
2023-01-20T02:53:21.192Z,1.90
2023-01-20T02:55:25.708Z,1.90
2023-01-20T02:57:30.335Z,1.90
2023-01-20T02:59:34.624Z,1.80
2023-01-20T03:01:41.044Z,1.80
2023-01-20T03:03:45.089Z,1.90
2023-01-20T03:05:49.894Z,1.80
2023-01-20T03:07:53.247Z,1.80
2023-01-20T03:09:57.541Z,1.80
2023-01-20T03:12:02.384Z,1.70
2023-01-20T03:14:06.813Z,1.70
2023-01-20T03:16:11.229Z,1.70
2023-01-20T03:18:14.038Z,1.70
2023-01-20T03:20:17.276Z,1.70
2023-01-20T03:22:19.806Z,1.70
2023-01-20T03:24:24.081Z,1.70
2023-01-20T03:26:27.228Z,1.70
2023-01-20T03:28:29.697Z,1.70
2023-01-20T03:30:32.238Z,1.70
2023-01-20T03:32:35.904Z,1.80
2023-01-20T03:34:39.983Z,1.80
2023-01-20T03:36:43.700Z,1.80
2023-01-20T03:38:46.385Z,1.80
2023-01-20T03:40:51.275Z,1.70
2023-01-20T03:42:55.583Z,1.70
2023-01-20T03:45:03.431Z,1.70
2023-01-20T03:47:08.592Z,1.70
2023-01-20T03:49:14.334Z,1.80
2023-01-20T03:51:19.903Z,1.80
2023-01-20T03:53:25.443Z,1.80
2023-01-20T03:55:30.834Z,1.80
2023-01-20T03:57:35.304Z,1.80
2023-01-20T03:59:39.579Z,1.80
2023-01-20T04:01:43.323Z,1.80
2023-01-20T04:03:47.622Z,1.70
2023-01-20T04:05:50.611Z,1.70
2023-01-20T04:07:55.310Z,1.70
2023-01-20T04:09:59.829Z,1.70
2023-01-20T04:12:02.642Z,1.70
2023-01-20T04:14:05.220Z,1.90
2023-01-20T04:16:11.626Z,1.70
2023-01-20T04:18:15.087Z,1.70
2023-01-20T04:20:17.908Z,1.70
2023-01-20T04:22:22.200Z,1.70
2023-01-20T04:24:26.595Z,1.70
2023-01-20T04:26:29.199Z,1.70
2023-01-20T04:28:32.030Z,1.40
2023-01-20T04:30:34.641Z,1.70
2023-01-20T04:32:37.183Z,1.80
2023-01-20T04:34:39.750Z,1.80
2023-01-20T04:36:42.656Z,1.80
2023-01-20T04:38:45.130Z,1.80
2023-01-20T04:40:47.638Z,1.80
2023-01-20T04:42:50.243Z,1.80
2023-01-20T04:44:52.755Z,1.80
2023-01-20T04:46:57.261Z,1.80
2023-01-20T04:48:59.743Z,1.80
2023-01-20T04:51:04.473Z,1.80
2023-01-20T04:53:07.390Z,1.80
2023-01-20T04:55:11.130Z,1.80
2023-01-20T04:57:13.606Z,1.70
2023-01-20T04:59:16.268Z,1.80
2023-01-20T05:01:19.075Z,1.80
2023-01-20T05:03:21.690Z,1.80
2023-01-20T05:05:24.442Z,1.80
2023-01-20T05:07:26.935Z,1.80
2023-01-20T05:09:29.604Z,1.80
2023-01-20T05:11:32.119Z,1.80
2023-01-20T05:13:38.610Z,1.80
2023-01-20T05:15:51.203Z,1.80
2023-01-20T05:17:53.746Z,1.80
2023-01-20T05:19:56.349Z,1.80
2023-01-20T05:21:59.715Z,1.80
2023-01-20T05:24:02.266Z,1.80
2023-01-20T05:26:05.000Z,1.80
2023-01-20T05:28:07.821Z,1.80
2023-01-20T05:30:11.538Z,1.70
2023-01-20T05:32:14.319Z,1.70
2023-01-20T05:34:16.787Z,1.80
2023-01-20T05:36:19.264Z,1.80
2023-01-20T05:38:21.807Z,1.80
2023-01-20T05:40:24.637Z,1.80
2023-01-20T05:42:27.331Z,1.80
2023-01-20T05:44:29.837Z,1.70
2023-01-20T05:46:32.340Z,1.70
2023-01-20T05:48:34.896Z,1.70
2023-01-20T05:50:37.401Z,1.70
2023-01-20T05:52:40.194Z,1.70
2023-01-20T05:54:42.665Z,1.70
2023-01-20T05:56:47.002Z,1.70
2023-01-20T05:58:50.067Z,1.70
2023-01-20T06:00:52.913Z,1.80
2023-01-20T06:02:55.472Z,1.70
2023-01-20T06:05:00.107Z,1.80
2023-01-20T06:07:02.577Z,1.80
2023-01-20T06:09:06.069Z,1.70
2023-01-20T06:11:08.525Z,1.70
2023-01-20T06:13:11.028Z,1.80
2023-01-20T06:15:13.796Z,1.80
2023-01-20T06:17:16.803Z,1.80
2023-01-20T06:19:19.371Z,1.80
2023-01-20T06:21:22.071Z,1.80
2023-01-20T06:23:25.050Z,1.80
2023-01-20T06:25:27.550Z,1.80
2023-01-20T06:27:30.143Z,1.80
2023-01-20T06:29:32.686Z,1.80
2023-01-20T06:31:35.137Z,1.80
2023-01-20T06:33:37.672Z,1.80
2023-01-20T06:35:40.212Z,1.80
2023-01-20T06:37:42.693Z,1.80
2023-01-20T06:39:45.313Z,1.90
2023-01-20T06:41:47.791Z,1.80
2023-01-20T06:43:51.075Z,1.90
2023-01-20T06:45:53.538Z,1.80
2023-01-20T06:47:56.038Z,1.90
2023-01-20T06:49:58.493Z,1.90
2023-01-20T06:52:00.979Z,1.90
2023-01-20T06:54:03.640Z,1.90
2023-01-20T06:56:07.136Z,1.80
2023-01-20T06:58:09.752Z,1.90
2023-01-20T07:00:13.713Z,1.90
2023-01-20T07:02:16.259Z,1.90
2023-01-20T07:04:18.790Z,1.90
2023-01-20T07:06:23.100Z,1.80
2023-01-20T07:08:25.685Z,1.90
2023-01-20T07:10:28.239Z,1.90
2023-01-20T07:12:30.728Z,1.90
2023-01-20T07:14:33.194Z,1.90
2023-01-20T07:16:36.185Z,1.90
2023-01-20T07:18:38.721Z,1.90
2023-01-20T07:20:42.702Z,1.90
2023-01-20T07:22:45.360Z,1.90
2023-01-20T07:24:47.874Z,1.90
2023-01-20T07:26:53.419Z,1.90
2023-01-20T07:28:57.492Z,1.80
2023-01-20T07:31:03.630Z,1.80
2023-01-20T07:33:06.130Z,1.80
2023-01-20T07:35:09.337Z,1.80
2023-01-20T07:37:12.044Z,1.80
2023-01-20T07:39:16.448Z,1.80
2023-01-20T07:41:19.271Z,1.90
2023-01-20T07:43:21.874Z,1.90
2023-01-20T07:45:24.383Z,1.80
2023-01-20T07:47:26.878Z,1.90
2023-01-20T07:49:29.399Z,1.90
2023-01-20T07:51:31.881Z,1.90
2023-01-20T07:53:35.590Z,1.90
2023-01-20T07:55:38.109Z,1.90
2023-01-20T07:57:40.604Z,1.90
2023-01-20T07:59:43.219Z,2.00
2023-01-20T08:01:45.837Z,1.90
2023-01-20T08:03:48.612Z,1.90
2023-01-20T08:05:51.173Z,2.00
2023-01-20T08:07:53.712Z,2.00
2023-01-20T08:09:56.177Z,2.00
2023-01-20T08:11:58.815Z,1.90
2023-01-20T08:14:01.282Z,2.00
2023-01-20T08:16:05.029Z,2.00
2023-01-20T08:18:07.523Z,2.00
2023-01-20T08:20:11.450Z,2.00
2023-01-20T08:22:13.923Z,2.00
2023-01-20T08:24:16.450Z,2.60
2023-01-20T08:26:19.187Z,2.00
2023-01-20T08:28:22.425Z,2.00
2023-01-20T08:30:24.985Z,2.00
2023-01-20T08:32:56.336Z,2.10
2023-01-20T08:34:56.964Z,2.10
2023-01-20T08:36:59.835Z,2.00
2023-01-20T08:39:03.536Z,2.10
2023-01-20T08:41:09.543Z,2.10
2023-01-20T08:43:12.974Z,2.10
2023-01-20T08:45:15.649Z,2.10
2023-01-20T08:47:18.392Z,2.20
2023-01-20T08:49:23.098Z,2.20
2023-01-20T08:51:26.811Z,2.20
2023-01-20T08:53:29.256Z,2.20
2023-01-20T08:55:33.524Z,2.20
2023-01-20T08:57:36.767Z,2.20
2023-01-20T08:59:39.261Z,2.30
2023-01-20T09:01:43.333Z,2.30
2023-01-20T09:03:59.289Z,2.30
2023-01-20T09:05:51.106Z,2.30
2023-01-20T09:07:53.679Z,2.30
2023-01-20T09:09:56.161Z,2.30
2023-01-20T09:11:58.732Z,2.30
2023-01-20T09:14:01.548Z,2.30
2023-01-20T09:16:04.925Z,2.30
2023-01-20T09:18:07.482Z,2.30
2023-01-20T09:20:11.980Z,2.30
2023-01-20T09:22:16.536Z,2.30
2023-01-20T09:24:18.873Z,2.30
2023-01-20T09:26:34.731Z,2.30
2023-01-20T09:28:25.666Z,2.40
2023-01-20T09:30:28.370Z,2.40
2023-01-20T09:32:32.268Z,2.40
2023-01-20T09:34:35.284Z,2.40
2023-01-20T09:36:37.866Z,2.50
2023-01-20T09:38:58.583Z,2.40
2023-01-20T09:41:25.470Z,2.40
2023-01-20T09:45:49.921Z,2.40
2023-01-20T09:47:54.200Z,2.40
2023-01-20T09:50:39.909Z,2.40
2023-01-20T09:53:01.648Z,2.50
2023-01-20T09:55:06.451Z,2.50
2023-01-20T09:57:10.598Z,2.50
2023-01-20T09:59:15.081Z,2.60
2023-01-20T10:01:19.786Z,2.60
2023-01-20T10:03:24.378Z,2.60
2023-01-20T10:05:32.068Z,2.70
2023-01-20T10:07:36.350Z,2.70
2023-01-20T10:09:40.630Z,2.80
2023-01-20T10:11:44.820Z,2.80
2023-01-20T10:13:50.757Z,2.90
2023-01-20T10:15:54.485Z,3.00
2023-01-20T10:17:58.900Z,3.00
2023-01-20T10:20:03.734Z,3.10
2023-01-20T10:22:09.312Z,3.20
2023-01-20T10:24:14.027Z,3.20
2023-01-20T10:26:18.459Z,3.20
2023-01-20T10:28:24.724Z,3.20
2023-01-20T10:30:29.080Z,3.20
2023-01-20T10:32:33.501Z,3.20
2023-01-20T10:34:38.844Z,3.20
2023-01-20T10:36:43.115Z,3.10
2023-01-20T10:38:49.509Z,3.10
2023-01-20T10:40:53.905Z,3.10
2023-01-20T10:42:57.414Z,3.00
2023-01-20T10:45:00.356Z,3.00
2023-01-20T10:47:07.331Z,2.90
2023-01-20T10:49:17.448Z,2.90
2023-01-20T10:51:23.216Z,2.90
2023-01-20T10:53:32.471Z,2.90
2023-01-20T10:55:38.772Z,2.90
2023-01-20T10:57:41.573Z,2.90
2023-01-20T10:59:44.891Z,2.90
2023-01-20T11:01:56.261Z,2.90
2023-01-20T11:03:53.439Z,2.80
2023-01-20T11:05:55.936Z,2.90
2023-01-20T11:08:00.223Z,3.00
2023-01-20T11:10:08.345Z,3.00
2023-01-20T11:12:13.386Z,2.90
2023-01-20T11:14:16.373Z,2.90
2023-01-20T11:16:22.486Z,3.00
2023-01-20T11:18:27.592Z,3.00
2023-01-20T11:20:30.072Z,3.00
2023-01-20T11:22:34.963Z,3.00
2023-01-20T11:24:39.566Z,3.00
2023-01-20T11:26:42.032Z,3.00
2023-01-20T11:28:46.901Z,3.10
2023-01-20T11:30:52.105Z,3.10
2023-01-20T11:33:17.362Z,3.10
2023-01-20T11:35:21.142Z,3.20
2023-01-20T11:37:25.895Z,3.50
2023-01-20T11:39:29.884Z,3.50
2023-01-20T11:41:32.644Z,3.60
2023-01-20T11:43:36.048Z,3.60
2023-01-20T11:45:39.943Z,3.70
2023-01-20T11:47:42.526Z,3.80
2023-01-20T11:49:45.298Z,3.80
2023-01-20T11:51:52.031Z,3.80
2023-01-20T11:53:57.435Z,3.80
2023-01-20T11:56:00.817Z,3.90
2023-01-20T11:58:03.924Z,3.90
2023-01-20T12:00:11.297Z,4.10
2023-01-20T12:02:24.436Z,4.20
2023-01-20T12:04:38.241Z,4.30
2023-01-20T12:06:44.508Z,4.20
2023-01-20T12:08:49.370Z,4.20
2023-01-20T12:10:52.075Z,4.20
2023-01-20T12:12:55.166Z,4.10
2023-01-20T12:15:09.709Z,3.90
2023-01-20T12:17:21.812Z,3.90
2023-01-20T12:19:27.831Z,3.90
2023-01-20T12:21:32.279Z,3.80
2023-01-20T12:23:41.213Z,3.70
2023-01-20T12:25:45.544Z,3.70
2023-01-20T12:27:50.403Z,3.70
2023-01-20T12:29:56.662Z,3.70
2023-01-20T12:32:00.808Z,3.80
2023-01-20T12:34:04.220Z,3.80
2023-01-20T12:36:28.142Z,3.70
2023-01-20T12:38:32.753Z,3.70
2023-01-20T12:40:38.411Z,3.70
2023-01-20T12:42:48.635Z,3.70
2023-01-20T12:44:54.008Z,3.70
2023-01-20T12:46:58.517Z,3.60
2023-01-20T12:49:09.136Z,3.70
2023-01-20T12:51:18.924Z,3.70
2023-01-20T12:53:25.994Z,3.60
2023-01-20T12:55:52.101Z,3.60
2023-01-20T12:58:00.751Z,3.60
2023-01-20T13:00:33.731Z,3.60
2023-01-20T13:02:51.898Z,3.60
2023-01-20T13:05:05.265Z,3.60
2023-01-20T13:07:35.790Z,3.60
2023-01-20T13:09:44.026Z,3.50
2023-01-20T13:11:50.619Z,3.60
2023-01-20T13:13:59.888Z,3.60
2023-01-20T13:16:06.239Z,3.60
2023-01-20T13:18:19.530Z,3.60
2023-01-20T13:20:23.080Z,3.60
2023-01-20T13:22:26.398Z,3.60
2023-01-20T13:24:30.158Z,3.70
2023-01-20T13:26:33.576Z,3.60
2023-01-20T13:28:36.519Z,3.70
2023-01-20T13:30:42.533Z,3.60
2023-01-20T13:32:45.845Z,3.70
2023-01-20T13:34:48.610Z,3.70
2023-01-20T13:37:09.782Z,3.70
2023-01-20T13:39:32.651Z,3.60
2023-01-20T13:41:48.509Z,3.70
2023-01-20T13:43:59.458Z,3.80
2023-01-20T13:46:21.180Z,3.70
2023-01-20T13:48:24.183Z,3.70
2023-01-20T13:50:28.210Z,3.70
2023-01-20T13:52:53.123Z,3.70
2023-01-20T13:54:57.098Z,3.70
2023-01-20T13:57:19.622Z,3.60
2023-01-20T13:59:23.208Z,3.70
2023-01-20T14:01:26.791Z,3.70
2023-01-20T14:03:30.909Z,3.60
2023-01-20T14:05:33.788Z,3.70
2023-01-20T14:07:36.375Z,3.70
2023-01-20T14:09:39.202Z,3.70
2023-01-20T14:11:49.427Z,3.70
2023-01-20T14:13:52.925Z,3.60
2023-01-20T14:15:56.013Z,3.60
2023-01-20T14:17:59.556Z,3.60
2023-01-20T14:20:02.333Z,3.50
2023-01-20T14:22:06.647Z,3.50
2023-01-20T14:24:24.719Z,3.50
2023-01-20T14:26:28.214Z,3.50
2023-01-20T14:28:31.107Z,3.50
2023-01-20T14:30:33.782Z,3.40
2023-01-20T14:32:36.703Z,3.50
2023-01-20T14:34:39.214Z,3.40
2023-01-20T14:36:42.141Z,3.40
2023-01-20T14:38:56.995Z,3.40
2023-01-20T14:40:50.778Z,3.40
2023-01-20T14:42:57.071Z,3.30
2023-01-20T14:44:59.666Z,3.30
2023-01-20T14:47:03.211Z,3.30
2023-01-20T14:49:06.017Z,3.30
2023-01-20T14:51:10.476Z,3.30
2023-01-20T14:53:13.917Z,3.30
2023-01-20T14:55:35.129Z,3.30
2023-01-20T14:57:42.940Z,3.30
2023-01-20T14:59:45.443Z,3.30
2023-01-20T15:01:52.289Z,3.30
2023-01-20T15:03:56.234Z,3.30
2023-01-20T15:05:59.651Z,3.30
2023-01-20T15:08:25.339Z,3.30
2023-01-20T15:10:26.175Z,3.30
2023-01-20T15:12:41.952Z,3.30
2023-01-20T15:14:56.581Z,3.30
2023-01-20T15:16:59.930Z,3.20
2023-01-20T15:19:30.797Z,3.20
2023-01-20T15:21:35.122Z,3.20
2023-01-20T15:23:38.799Z,3.20
2023-01-20T15:25:41.436Z,3.10
2023-01-20T15:27:43.954Z,3.10
2023-01-20T15:29:58.839Z,3.10
2023-01-20T15:32:02.963Z,3.10
2023-01-20T15:34:05.485Z,3.10
2023-01-20T15:36:15.923Z,3.10
2023-01-20T15:38:18.517Z,3.10
2023-01-20T15:40:22.578Z,3.10
2023-01-20T15:42:25.148Z,3.10
2023-01-20T15:44:27.669Z,3.00
2023-01-20T15:46:30.156Z,3.10
2023-01-20T15:48:32.809Z,3.10
2023-01-20T15:50:35.299Z,3.10
2023-01-20T15:52:37.767Z,3.10
2023-01-20T15:54:40.361Z,3.10
2023-01-20T15:56:43.336Z,3.10
2023-01-20T15:58:46.205Z,3.00
2023-01-20T16:00:48.768Z,3.10
2023-01-20T16:02:51.410Z,3.00
2023-01-20T16:04:53.893Z,3.00
2023-01-20T16:06:56.465Z,3.00
2023-01-20T16:09:00.044Z,3.00
2023-01-20T16:11:02.885Z,2.90
2023-01-20T16:13:05.444Z,3.00
2023-01-20T16:15:09.210Z,2.90
2023-01-20T16:17:13.171Z,2.90
2023-01-20T16:19:15.745Z,2.90
2023-01-20T16:21:19.133Z,2.80
2023-01-20T16:23:21.706Z,2.80
2023-01-20T16:25:24.913Z,2.80
2023-01-20T16:27:27.385Z,2.60
2023-01-20T16:29:29.883Z,2.60
2023-01-20T16:31:32.993Z,2.50
2023-01-20T16:33:35.465Z,2.40
2023-01-20T16:35:37.947Z,2.30
2023-01-20T16:37:41.663Z,2.30
2023-01-20T16:39:44.152Z,2.30
2023-01-20T16:41:48.307Z,2.20
2023-01-20T16:43:51.100Z,2.20
2023-01-20T16:45:54.674Z,2.10
2023-01-20T16:47:57.194Z,2.00
2023-01-20T16:49:59.771Z,2.00
2023-01-20T16:52:02.243Z,2.00
2023-01-20T16:54:04.950Z,1.90
2023-01-20T16:56:10.776Z,1.90
2023-01-20T16:58:14.079Z,1.90
2023-01-20T17:00:19.170Z,1.80
2023-01-20T17:02:21.991Z,1.80
2023-01-20T17:04:24.633Z,1.80
2023-01-20T17:06:28.214Z,1.80
2023-01-20T17:08:30.728Z,1.80
2023-01-20T17:10:33.302Z,1.80
2023-01-20T17:12:35.896Z,1.80
2023-01-20T17:14:38.427Z,1.80
2023-01-20T17:16:41.564Z,1.80
2023-01-20T17:18:45.277Z,1.80
2023-01-20T17:20:47.753Z,1.80
2023-01-20T17:22:51.314Z,1.80
2023-01-20T17:24:53.843Z,1.80
2023-01-20T17:26:56.354Z,1.70
2023-01-20T17:29:01.562Z,1.70
2023-01-20T17:31:04.829Z,1.70
2023-01-20T17:33:07.360Z,1.70
2023-01-20T17:35:10.483Z,1.60
2023-01-20T17:37:12.994Z,1.60
2023-01-20T17:39:15.515Z,1.50
2023-01-20T17:41:17.982Z,1.50
2023-01-20T17:43:20.499Z,1.50
2023-01-20T17:45:22.978Z,1.40
2023-01-20T17:47:25.481Z,1.40
2023-01-20T17:49:27.995Z,1.40
2023-01-20T17:51:32.268Z,1.30
2023-01-20T17:53:34.798Z,1.20
2023-01-20T17:55:37.275Z,1.20
2023-01-20T17:57:39.813Z,1.10
2023-01-20T17:59:42.277Z,1.10
2023-01-20T18:01:44.757Z,1.10
2023-01-20T18:03:47.894Z,1.00
2023-01-20T18:05:52.215Z,1.00
2023-01-20T18:07:54.850Z,1.00
2023-01-20T18:09:57.957Z,1.00
2023-01-20T18:12:00.684Z,0.90
2023-01-20T18:14:04.146Z,0.90
2023-01-20T18:16:07.889Z,0.80
2023-01-20T18:18:10.372Z,0.80
2023-01-20T18:20:14.637Z,0.80
2023-01-20T18:22:18.327Z,0.90
2023-01-20T18:24:20.827Z,0.90
2023-01-20T18:26:24.458Z,0.90
2023-01-20T18:28:26.987Z,0.90
2023-01-20T18:30:29.559Z,0.90
2023-01-20T18:32:32.112Z,0.90
2023-01-20T18:34:34.668Z,0.90
2023-01-20T18:36:38.565Z,0.90
2023-01-20T18:38:42.723Z,0.90
2023-01-20T18:40:45.212Z,0.80
2023-01-20T18:42:48.215Z,0.80
2023-01-20T18:44:50.747Z,0.70
2023-01-20T18:46:53.246Z,0.70
2023-01-20T18:48:55.867Z,0.70
2023-01-20T18:50:59.698Z,0.60
2023-01-20T18:53:02.172Z,0.60
2023-01-20T18:55:05.789Z,0.50
2023-01-20T18:57:09.166Z,0.60
2023-01-20T18:59:12.127Z,0.60
2023-01-20T19:01:16.498Z,0.60
2023-01-20T19:03:19.107Z,0.60
2023-01-20T19:05:21.641Z,0.60
2023-01-20T19:07:24.247Z,0.50
2023-01-20T19:09:26.915Z,0.40
2023-01-20T19:11:30.770Z,0.40
2023-01-20T19:13:33.257Z,0.40
2023-01-20T19:15:36.950Z,0.40
2023-01-20T19:17:39.731Z,0.30
2023-01-20T19:19:44.613Z,0.10
2023-01-20T19:21:48.882Z,0.10
2023-01-20T19:23:52.231Z,0.10
2023-01-20T19:25:59.918Z,0.10
2023-01-20T19:28:04.290Z,0.10
2023-01-20T19:30:08.104Z,0.10
2023-01-20T19:32:10.731Z,0.10
2023-01-20T19:34:13.428Z,0.00
2023-01-20T19:36:17.004Z,0.00
2023-01-20T19:38:19.620Z,0.00
2023-01-20T19:40:22.108Z,-0.10
2023-01-20T19:42:25.827Z,-0.10
2023-01-20T19:44:28.493Z,0.00
2023-01-20T19:46:33.295Z,0.00
2023-01-20T19:48:36.503Z,0.10
2023-01-20T19:50:39.310Z,0.00
2023-01-20T19:52:41.860Z,0.00
2023-01-20T19:54:44.451Z,0.00
2023-01-20T19:56:46.982Z,-0.10
2023-01-20T19:58:51.414Z,-0.10
2023-01-20T20:00:53.933Z,-0.10
2023-01-20T20:02:56.525Z,-0.20
2023-01-20T20:04:59.203Z,-0.20
2023-01-20T20:07:01.701Z,-0.30
2023-01-20T20:09:05.435Z,-0.30
2023-01-20T20:11:10.551Z,-0.30
2023-01-20T20:13:13.038Z,-0.30
2023-01-20T20:15:15.697Z,-0.30
2023-01-20T20:17:18.217Z,-0.30
2023-01-20T20:19:20.729Z,-0.40
2023-01-20T20:21:23.498Z,-0.40
2023-01-20T20:23:26.076Z,-0.30
2023-01-20T20:25:28.570Z,-0.30
2023-01-20T20:27:31.107Z,-0.30
2023-01-20T20:29:33.558Z,-0.30
2023-01-20T20:31:36.876Z,-0.40
2023-01-20T20:33:39.668Z,-0.40
2023-01-20T20:35:42.262Z,-0.40
2023-01-20T20:37:44.791Z,-0.50
2023-01-20T20:39:47.282Z,-0.50
2023-01-20T20:41:49.796Z,-0.50
2023-01-20T20:43:53.872Z,-0.50
2023-01-20T20:46:00.062Z,-0.50
2023-01-20T20:48:02.573Z,-0.50
2023-01-20T20:50:07.360Z,-0.50
2023-01-20T20:52:09.924Z,-0.50
2023-01-20T20:54:14.653Z,-0.60
2023-01-20T20:56:17.639Z,-0.50
2023-01-20T20:58:20.214Z,-0.60
2023-01-20T21:00:24.631Z,-0.60
2023-01-20T21:02:27.450Z,-0.60
2023-01-20T21:04:30.875Z,-0.60
2023-01-20T21:06:33.920Z,-0.60
2023-01-20T21:08:36.905Z,-0.50
2023-01-20T21:10:40.649Z,-0.50
2023-01-20T21:12:43.181Z,-0.60
2023-01-20T21:14:45.893Z,-0.60
2023-01-20T21:16:48.533Z,-0.70
2023-01-20T21:18:51.836Z,-0.70
2023-01-20T21:20:55.247Z,-0.80
2023-01-20T21:22:58.120Z,-0.70
2023-01-20T21:25:00.617Z,-0.70
2023-01-20T21:27:03.166Z,-0.70
2023-01-20T21:29:05.630Z,-0.80
2023-01-20T21:31:09.496Z,-0.80
2023-01-20T21:33:14.751Z,-0.80
2023-01-20T21:35:17.302Z,-0.80
2023-01-20T21:37:20.006Z,-0.80
2023-01-20T21:39:22.612Z,-0.80
2023-01-20T21:41:25.112Z,-0.90
2023-01-20T21:43:48.933Z,-0.90
2023-01-20T21:45:54.420Z,-0.90
2023-01-20T21:47:59.104Z,-0.90
2023-01-20T21:50:29.956Z,-0.90
2023-01-20T21:54:48.822Z,-0.80
2023-01-20T21:56:51.728Z,-0.90
2023-01-20T21:58:54.298Z,-0.90
2023-01-20T22:00:56.798Z,-1.00
2023-01-20T22:02:59.365Z,-1.00
2023-01-20T22:05:01.839Z,-1.00
2023-01-20T22:07:04.374Z,-1.00
2023-01-20T22:09:07.181Z,-1.00
2023-01-20T22:11:10.081Z,-1.00
2023-01-20T22:13:12.533Z,-1.00
2023-01-20T22:15:15.191Z,-0.90
2023-01-20T22:17:17.694Z,-0.90
2023-01-20T22:19:20.354Z,-0.90
2023-01-20T22:21:24.431Z,-0.90
2023-01-20T22:23:26.954Z,-0.80
2023-01-20T22:25:29.529Z,-0.90
2023-01-20T22:27:32.005Z,-0.90
2023-01-20T22:29:34.623Z,-0.90
2023-01-20T22:31:37.521Z,-0.90
2023-01-20T22:33:40.365Z,-0.90
2023-01-20T22:35:43.208Z,-0.90
2023-01-20T22:37:48.037Z,-0.90
2023-01-20T22:39:52.911Z,-1.00
2023-01-20T22:41:55.694Z,-0.90
2023-01-20T22:43:58.462Z,-1.00
2023-01-20T22:46:02.046Z,-1.00
2023-01-20T22:48:05.018Z,-1.00
2023-01-20T22:50:08.866Z,-1.00
2023-01-20T22:52:12.098Z,-0.90
2023-01-20T22:54:15.000Z,-0.90
2023-01-20T22:56:18.354Z,-1.00
2023-01-20T22:58:21.071Z,-1.00
2023-01-20T23:00:24.259Z,-1.10
2023-01-20T23:02:26.892Z,-1.10
2023-01-20T23:04:29.551Z,-1.20
2023-01-20T23:06:33.376Z,-1.20
2023-01-20T23:08:36.993Z,-1.30
2023-01-20T23:10:48.983Z,-1.30
2023-01-20T23:12:51.793Z,-1.30
2023-01-20T23:15:00.495Z,-1.30
2023-01-20T23:17:03.220Z,-1.40
2023-01-20T23:19:06.707Z,-1.30
2023-01-20T23:21:10.348Z,-1.40
2023-01-20T23:23:13.539Z,-1.40
2023-01-20T23:25:16.871Z,-1.40
2023-01-20T23:27:19.591Z,-1.40
2023-01-20T23:29:22.704Z,-1.40
2023-01-20T23:31:27.611Z,-1.30
2023-01-20T23:33:30.513Z,-1.20
2023-01-20T23:35:34.358Z,-1.10
2023-01-20T23:37:37.050Z,-1.10
2023-01-20T23:39:40.027Z,-1.20
2023-01-20T23:41:42.557Z,-1.20
2023-01-20T23:43:45.073Z,-1.30
2023-01-20T23:45:47.662Z,-1.40
2023-01-20T23:47:51.059Z,-1.40
2023-01-20T23:49:53.849Z,-1.50
2023-01-20T23:51:56.410Z,-1.50
2023-01-20T23:53:58.921Z,-1.50
2023-01-20T23:56:01.593Z,-1.50
2023-01-20T23:58:04.229Z,-1.40
